Colorado City, AZ

3:55 PM MST on November 11, 2019 (GMT -0700)
Colorado City Municipal

Weather History for KAZC - September, 2019

Change the Weather History Date:

Wednesday, September 25, 2019

  Actual Average (KSGU) Record (KSGU)
Temperature  
Mean Temperature 66 °F -  
Max Temperature 89 °F 89 °F 103 °F (1947)
Min Temperature 42 °F 55 °F 40 °F (1958)
Growing Degree Days 16 (Base 50)    
Moisture  
Dew Point 32 °F    
Average Humidity 33    
Maximum Humidity 61    
Minimum Humidity 11    
Precipitation  
Precipitation 0.00 in - - ()
Sea Level Pressure  
Sea Level Pressure 30.08 in    
Wind  
Wind Speed 3 mph (SSE)    
Max Wind Speed 9 mph    
Max Gust Speed 18 mph    
Visibility 10 miles    
Events      
Averages and records for this station are not official NWS values.
T = Trace of Precipitation, MM = Missing Value Source: NWS Daily Summary

Daily Weather History Graph

Daily Weather History Graph

Search for Another Location

Airport or City:

Astronomy

Sep. 25, 2019 Rise Set
Actual Time 6:22 AM MST 6:24 PM MST
Civil Twilight 5:56 AM MST 6:50 PM MST
Nautical Twilight 5:26 AM MST 7:20 PM MST
Astronomical Twilight 4:55 AM MST 7:51 PM MST
Moon 2:28 AM MST (9/25) 4:52 PM MST (9/25)
Length of Visible Light 12h 54m
Length of Day
12h 02m
Waning Crescent, 13% of the Moon is Illuminated
Sep 25
Waning Crescent
Sep 28
New
Oct 5
First Quarter
Oct 13
Full
Oct 21
Last Quarter

Hourly Weather History & Observations

Time (MST) Temp. Windchill Dew Point Humidity Pressure Visibility Wind Dir Wind Speed Gust Speed Precip Events Conditions
12:15 AM 51.8 °F - 32.0 °F 47% 30.09 in - Calm Calm - N/A   Clear
12:35 AM 50.0 °F - 32.0 °F 50% 30.10 in - ESE 5.8 mph - N/A   Clear
12:55 AM 51.8 °F - 32.0 °F 47% 30.10 in - ESE 5.8 mph - N/A   Clear
1:15 AM 51.8 °F - 32.0 °F 47% 30.09 in - East 4.6 mph - N/A   Clear
1:35 AM 50.0 °F - 32.0 °F 50% 30.09 in - East 3.5 mph - N/A   Clear
1:55 AM 48.2 °F - 30.2 °F 50% 30.09 in 10.0 mi SSE 4.6 mph - N/A   Clear
2:15 AM 46.4 °F 42.4 °F 30.2 °F 53% 30.09 in - ESE 8.1 mph - N/A   Clear
2:35 AM 51.8 °F - 32.0 °F 47% 30.08 in - ESE 8.1 mph - N/A   Clear
2:55 AM 46.4 °F - 30.2 °F 53% 30.08 in 10.0 mi Calm Calm - N/A   Clear
3:15 AM 46.4 °F - 30.2 °F 53% 30.08 in - Calm Calm - N/A   Clear
3:35 AM 46.4 °F 45.2 °F 30.2 °F 53% 30.08 in - ESE 3.5 mph - N/A   Clear
3:55 AM 44.6 °F 43.1 °F 30.2 °F 57% 30.09 in 10.0 mi ESE 3.5 mph - N/A   Clear
4:15 AM 46.4 °F 43.5 °F 32.0 °F 57% 30.09 in - ESE 5.8 mph - N/A   Clear
4:35 AM 46.4 °F - 30.2 °F 53% 30.09 in - Calm Calm - N/A   Clear
4:55 AM 46.4 °F - 30.2 °F 53% 30.10 in - Calm Calm - N/A   Clear
5:15 AM 42.8 °F 41.1 °F 30.2 °F 61% 30.09 in - ESE 3.5 mph - N/A   Clear
5:35 AM 44.6 °F 43.1 °F 30.2 °F 57% 30.10 in - SSE 3.5 mph - N/A   Clear
5:55 AM 44.6 °F - 32.0 °F 61% 30.10 in - Calm Calm - N/A   Clear
6:15 AM 44.6 °F - 32.0 °F 61% 30.11 in 10.0 mi Calm Calm - N/A   Clear
6:35 AM 44.6 °F - 32.0 °F 61% 30.11 in 10.0 mi Calm Calm - N/A   Clear
6:55 AM 44.6 °F - 32.0 °F 61% 30.11 in 10.0 mi Calm Calm - N/A   Clear
7:15 AM 48.2 °F - 32.0 °F 54% 30.11 in 10.0 mi Calm Calm - N/A   Clear
7:35 AM 51.8 °F - 32.0 °F 47% 30.12 in 10.0 mi Calm Calm - N/A   Clear
7:55 AM 55.4 °F - 32.0 °F 41% 30.13 in 10.0 mi Calm Calm - N/A   Clear
8:15 AM 59.0 °F - 32.0 °F 36% 30.13 in 10.0 mi Calm Calm - N/A   Clear
8:35 AM 62.6 °F - 32.0 °F 32% 30.13 in 10.0 mi ESE 3.5 mph - N/A   Clear
8:55 AM 66.2 °F - 32.0 °F 28% 30.13 in 10.0 mi Calm Calm - N/A   Clear
9:15 AM 71.6 °F - 33.8 °F 25% 30.13 in 10.0 mi Calm Calm - N/A   Clear
9:35 AM 73.4 °F - 33.8 °F 23% 30.13 in 10.0 mi Calm Calm - N/A   Clear
9:55 AM 77.0 °F - 33.8 °F 21% 30.13 in 10.0 mi Calm Calm - N/A   Clear
10:35 AM 78.8 °F - 35.6 °F 21% 30.12 in 10.0 mi Calm Calm - N/A   Clear
11:15 AM 82.4 °F - 35.6 °F 19% 30.11 in 10.0 mi WSW 4.6 mph - N/A   Clear
11:35 AM 82.4 °F - 33.8 °F 17% 30.11 in 10.0 mi Calm Calm - N/A   Clear
11:55 AM 86.0 °F - 33.8 °F 15% 30.11 in 10.0 mi Calm Calm - N/A   Clear
12:15 PM 86.0 °F - 32.0 °F 14% 30.09 in 10.0 mi South 6.9 mph - N/A   Clear
12:35 PM 87.8 °F - 32.0 °F 14% 30.09 in 10.0 mi South 4.6 mph - N/A   Clear
12:55 PM 87.8 °F - 32.0 °F 14% 30.08 in 10.0 mi East 5.8 mph 18.4 mph N/A   Clear
1:15 PM 87.8 °F - 32.0 °F 14% 30.07 in 10.0 mi Calm Calm - N/A   Clear
1:35 PM 89.6 °F - 32.0 °F 13% 30.07 in 10.0 mi South 4.6 mph - N/A   Clear
1:55 PM 89.6 °F - 32.0 °F 13% 30.06 in 10.0 mi SSE 4.6 mph - N/A   Clear
2:15 PM 87.8 °F - 30.2 °F 13% 30.05 in 10.0 mi WSW 3.5 mph - N/A   Clear
2:35 PM 87.8 °F - 30.2 °F 13% 30.05 in 10.0 mi WNW 5.8 mph - N/A   Clear
2:55 PM 89.6 °F - 30.2 °F 12% 30.04 in 10.0 mi South 4.6 mph - N/A   Clear
3:15 PM 89.6 °F - 28.4 °F 11% 30.04 in 10.0 mi West 4.6 mph - N/A   Clear
3:35 PM 89.6 °F - 30.2 °F 12% 30.03 in 10.0 mi South 5.8 mph - N/A   Clear
3:55 PM 87.8 °F - 30.2 °F 13% 30.03 in 10.0 mi Calm Calm - N/A   Clear
4:15 PM 89.6 °F - 30.2 °F 12% 30.02 in 10.0 mi WSW 6.9 mph - N/A   Clear
4:35 PM 87.8 °F - 30.2 °F 13% 30.02 in 10.0 mi WNW 3.5 mph - N/A   Clear
4:55 PM 86.0 °F - 32.0 °F 14% 30.02 in 10.0 mi WNW 9.2 mph - N/A   Clear
5:15 PM 86.0 °F - 32.0 °F 14% 30.02 in 10.0 mi WNW 9.2 mph - N/A   Clear
5:35 PM 84.2 °F - 32.0 °F 15% 30.02 in 10.0 mi WNW 6.9 mph - N/A   Clear
5:55 PM 80.6 °F - 32.0 °F 17% 30.03 in 10.0 mi WNW 5.8 mph - N/A   Clear
6:15 PM 78.8 °F - 32.0 °F 18% 30.03 in 10.0 mi WNW 4.6 mph - N/A   Clear
6:35 PM 77.0 °F - 32.0 °F 19% 30.03 in 10.0 mi WNW 4.6 mph - N/A   Clear
6:55 PM 71.6 °F - 33.8 °F 25% 30.03 in 10.0 mi NNW 3.5 mph - N/A   Clear
7:15 PM 69.8 °F - 33.8 °F 27% 30.04 in 10.0 mi NNW 4.6 mph - N/A   Clear
7:35 PM 64.4 °F - 32.0 °F 30% 30.05 in 10.0 mi Calm Calm - N/A   Clear
7:55 PM 64.4 °F - 32.0 °F 30% 30.05 in 10.0 mi Calm Calm - N/A   Clear
8:15 PM 62.6 °F - 32.0 °F 32% 30.06 in 10.0 mi ESE 5.8 mph - N/A   Clear
8:35 PM 62.6 °F - 33.8 °F 34% 30.07 in 10.0 mi Calm Calm - N/A   Clear
8:55 PM 60.8 °F - 32.0 °F 34% 30.07 in 10.0 mi ESE 4.6 mph - N/A   Clear
9:15 PM 60.8 °F - 32.0 °F 34% 30.07 in 10.0 mi Calm Calm - N/A   Clear
9:35 PM 60.8 °F - 32.0 °F 34% 30.07 in 10.0 mi Calm Calm - N/A   Clear
9:55 PM 60.8 °F - 32.0 °F 34% 30.07 in 10.0 mi South 3.5 mph - N/A   Clear
10:15 PM 57.2 °F - 32.0 °F 38% 30.08 in 10.0 mi SE 3.5 mph - N/A   Clear
10:35 PM 60.8 °F - 32.0 °F 34% 30.08 in 10.0 mi ESE 8.1 mph - N/A   Clear
10:55 PM 60.8 °F - 32.0 °F 34% 30.08 in 10.0 mi East 3.5 mph - N/A   Clear
11:15 PM 60.8 °F - 32.0 °F 34% 30.08 in 10.0 mi SE 5.8 mph - N/A   Clear
11:35 PM 60.8 °F - 32.0 °F 34% 30.08 in 10.0 mi Calm Calm - N/A   Clear